EGGDLFLS

Guest
Details From EGGD - Bristol Lulsgate
To LFLS - St Geoirs
Flight Number -
Tags Generated
Created
Modified
Stats Distance 483 nm / 895 km
Max Altitude 0 ft / 0 m
Waypoints 4
Social Downloads 1
Likes 0
Share VATSIM

Download

Looking for another format? Having issues loading an existing format? Contact us
Advertisement - Login to hide

Notes

Generated

Route

EGGD AGOPA SAN10 LFLS

ID Type Via Altitude Latitude Longitude Leg Dist Tot Dist Heading (true) Name
O EGGD APT - 0 ft / 0 m 51.38211˚ -2.73350˚ - 0 nm - -
AGOPA FIX - 0 ft / 0 m 48.08333˚ 2.00972˚ 270 nm 270 nm 135° / 139° -
SAN10 FIX - 0 ft / 0 m 45.55119˚ 5.10827˚ 198 nm 468 nm 139° / 141° -
O LFLS APT - 0 ft / 0 m 45.36087˚ 5.32881˚ 14 nm 483 nm 141° / 141° St Geoirs

Altitude Profile

Advertisement - Login to hide

Weather


0- 5 10 15 20 25 30 35+ Temperature / ° C

Clouds and Precipitation
Forecast for 2017-12-12 00:00 UTC. Updated 15 minutes ago

Ground ~20,000 ft ~40,000 ft Winds

EGGD

Details ICAO EGGD (BRS)
Name Bristol International
Region United Kingdom
Timezone Europe/London (UTC+0.0)
Stats Elevation 622 ft / 190 m (AMSL)
Location 51.382658° -2.718918°
Runways 1
Magnetic Variation 1.351° W

METAR

EGGD 112120Z AUTO 28002KT 9999 NCD 00/M02 Q0998

Decode

TAF

TAF EGGD 111704Z 1118/1218 26006KT 9999 FEW030 PROB30 TEMPO 1202/1212 0300 FZFG BKN001 BECMG 1215/1218 19010KT

Decode

Departure Runways

ID Width Length Bearing (true) Bearing (mag) Surface Threshold Offset Overrun Length
09 148 ft / 45 m 6,655 ft / 2,029 m 86.42° 87.77° Asphalt 0 ft / 0 m 0 ft / 0 m
27 148 ft / 45 m 6,655 ft / 2,029 m 266.44° 267.79° Asphalt 499 ft / 152 m 0 ft / 0 m

LFLS

Details ICAO LFLS (GNB)
Name St Geoirs
Region France
Timezone Europe/Paris (UTC+1.0)
Stats Elevation 1,302 ft / 397 m (AMSL)
Location 45.361183° 5.327528°
Runways 3
Magnetic Variation 1.554° E

METAR

LFLS 112130Z AUTO 19010KT 9999 OVC052 07/03 Q0996

Decode

TAF

TAF TAF LFLS 111957Z 1119/1215 CNL

Decode

Destination Runways

ID Width Length Bearing (true) Bearing (mag) Surface Threshold Offset Overrun Length
09 148 ft / 45 m 9,979 ft / 3,042 m 90.22° 88.67° Asphalt 0 ft / 0 m 0 ft / 0 m
09R 102 ft / 31 m 2,951 ft / 899 m 90.20° 88.65° Grass 0 ft / 0 m 0 ft / 0 m
16 82 ft / 25 m 1,640 ft / 500 m 160.10° 158.55° Grass 0 ft / 0 m 0 ft / 0 m
27 148 ft / 45 m 9,979 ft / 3,042 m 270.24° 268.69° Asphalt 0 ft / 0 m 0 ft / 0 m
27L 102 ft / 31 m 2,951 ft / 899 m 270.20° 268.65° Grass 0 ft / 0 m 0 ft / 0 m
34 82 ft / 25 m 1,640 ft / 500 m 340.10° 338.55° Grass 0 ft / 0 m 0 ft / 0 m

Approach Navaids

Runway Type Ident Frequency Range Bearing (true) Bearing (mag) Slope Elevation
09 Localiser SG 109.30 MHz 27 nm / 50 km 90.23° 88.68° - 1,302 ft / 397 m (AMSL)
09 Glidescope SG 109.30 MHz 27 nm / 50 km 90.23° 88.68° 3.00° 1,302 ft / 397 m (AMSL)
09 DME SG 109.30 MHz 27 nm / 50 km - - - 1,302 ft / 397 m (AMSL)

Popular Alternatives